Flight Track Log - Related Links

Times and Time Zones

All times are in EDT time to prevent confusion due to time zone crossing. See the AWI3970 flight status page for this flight to view local times or setup timezone preferences in your user account.

Time Position Orientation Groundspeed Altitude Reporting Facility
EDT Latitude Longitude Course Direction KTS MPH feet Rate Location/Type
11:03PM 39.8667 -75.2667 37° Northeast 130 150 700  Level Philadelphia TRACON
11:05PM 39.8167 -74.8719 90° East  Level FlightAware Approximate
11:05PM 39.7706 -75.3461 212° Southwest 189 217 4,800  Level New York Center
11:06PM 39.7933 -74.7495 105° East  Level FlightAware Approximate
11:06PM 39.7656 -75.2594 94° East 128 147 6,500  Level New York Center
11:07PM 39.8291 -74.6543 37° Northeast  Level FlightAware Approximate
11:07PM 39.7669 -75.1622 89° East 222 255 9,200  Level New York Center
11:08PM 39.9060 -74.5774 37° Northeast  Level FlightAware Approximate
11:08PM 39.7725 -75.0681 86° East 280 322 11,300  Level New York Center
11:09PM 39.7794 -74.9389 86° East 318 366 12,000 500 Climbing New York Center
11:10PM 39.8047 -74.8078 76° East 350 403 12,300 900 Climbing New York Center
11:11PM 39.8769 -74.7092 46° Northeast 350 403 13,800 1,550 Climbing New York Center
11:12PM 39.9511 -74.6078 46° Northeast 365 420 15,400 1,550 Climbing New York Center
11:13PM 40.0272 -74.5064 46° Northeast 377 434 16,900 1,600 Climbing New York Center
11:14PM 40.0967 -74.4233 42° Northeast 383 441 18,600 1,700 Climbing New York Center
11:15PM 40.1872 -74.3275 39° Northeast 378 435 20,300 1,500 Climbing New York Center
11:16PM 40.2753 -74.2394 37° Northeast 378 435 21,600 1,250 Climbing New York Center
11:17PM 40.3631 -74.1542 37° Northeast 383 441 22,800 814 Climbing New York Center
11:19PM 40.5414 -73.9831 36° Northeast 413 475 24,000 407 Climbing Boston Center
11:20PM 40.6447 -73.8842 36° Northeast 431 496 24,000  Level Boston Center
11:21PM 40.7522 -73.7797 36° Northeast 453 521 24,000  Level Boston Center
11:22PM 40.8558 -73.6667 40° Northeast 472 543 24,000 -153 Level Boston Center
11:23PM 40.9692 -73.5700 33° Northeast 483 556 23,700 -550 Descending Boston Center
11:24PM 41.0983 -73.5803 357° North 438 504 22,900 -344 Descending Boston Center
11:25PM 41.2192 -73.5964 354° North 433 498 23,000  Climbing Boston Center
11:26PM 41.3397 -73.6122 354° North 433 498 22,900 -712 Descending Boston Center
11:27PM 41.4606 -73.6311 353° North 433 498 21,600 -1,322 Descending Boston Center
11:28PM 41.5811 -73.6472 354° North 433 498 20,300 -1,339 Descending Boston Center
11:29PM 41.6872 -73.6575 356° North 433 498 18,900 -1,475 Descending Boston Center
11:30PM 41.8142 -73.6742 354° North 420 483 17,300 -1,600 Descending Boston Center
11:31PM 41.9164 -73.6872 355° North 415 478 15,700 -1,765 Descending Boston Center
11:32PM 42.0328 -73.7036 354° North 400 460 13,800 -1,983 Descending Boston Center
11:33PM 42.1222 -73.7164 354° North 375 432 11,700 -1,513 Descending Boston Center
11:34PM 42.2242 -73.7297 354° North 346 398 10,800 -886 Descending Boston Center
11:34PM 42.2617 -73.7361 353° North 299 344 10,400 -1,065 Descending Boston Center
11:35PM 42.2950 -73.7397 355° North 305 351 9,700 -2,110 Descending Boston Center
11:36PM 42.3761 -73.7525 353° North 271 312 7,200 -2,494 Descending Boston Center
11:36PM 42.4094 -73.7561 355° North 248 285 6,000 -2,000 Descending Boston Center
11:37PM 42.4344 -73.7594 354° North 252 290 5,200 -1,900 Descending Boston Center
11:37PM 42.4719 -73.7686 350° North 225 259 4,100 -1,435 Descending Boston Center
11:38PM 42.5281 -73.7728 357° North 198 228 3,000 -750 Descending Boston Center
11:39PM 42.5758 -73.7878 347° North 176 203 2,600 -404 Descending Boston Center
11:40PM 42.5925 -73.7908 352° North 183 211 2,400 -492 Descending Boston Center
11:40PM 42.6236 -73.8031 344° North 171 197 2,100 -457 Descending Boston Center
11:41PM 42.6631 -73.8039 359° North 130 150 1,700 -541 Descending Boston Center
11:42PM 42.7006 -73.8075 356° North 123 142 1,000 -700 Descending Boston Center

Login

Don't have an account? Register now (free) for customized features, flight alerts, and more!